sensor_id;sensor_type;location;lat;lon;timestamp;temperature;humidity
44723;DHT22;30451;48.638;10.624;2023-05-10T00:00:23;24.20;48.30
44723;DHT22;30451;48.638;10.624;2023-05-10T00:02:49;24.30;48.40
44723;DHT22;30451;48.638;10.624;2023-05-10T00:05:15;24.20;48.40
44723;DHT22;30451;48.638;10.624;2023-05-10T00:07:40;24.20;48.40
44723;DHT22;30451;48.638;10.624;2023-05-10T00:10:10;24.20;48.40
44723;DHT22;30451;48.638;10.624;2023-05-10T00:12:36;24.20;48.30
44723;DHT22;30451;48.638;10.624;2023-05-10T00:15:02;24.20;48.40
44723;DHT22;30451;48.638;10.624;2023-05-10T00:17:28;24.20;48.40
44723;DHT22;30451;48.638;10.624;2023-05-10T00:19:53;24.20;48.40
44723;DHT22;30451;48.638;10.624;2023-05-10T00:22:19;24.20;48.40
44723;DHT22;30451;48.638;10.624;2023-05-10T00:24:45;24.20;48.50
44723;DHT22;30451;48.638;10.624;2023-05-10T00:27:11;24.20;48.40
44723;DHT22;30451;48.638;10.624;2023-05-10T00:29:37;24.20;48.50
44723;DHT22;30451;48.638;10.624;2023-05-10T00:32:02;24.10;48.40
44723;DHT22;30451;48.638;10.624;2023-05-10T00:34:28;24.20;48.40
44723;DHT22;30451;48.638;10.624;2023-05-10T00:36:53;24.10;48.40
44723;DHT22;30451;48.638;10.624;2023-05-10T00:39:19;24.20;48.50
44723;DHT22;30451;48.638;10.624;2023-05-10T00:41:45;24.10;48.40
44723;DHT22;30451;48.638;10.624;2023-05-10T00:44:11;24.20;48.40
44723;DHT22;30451;48.638;10.624;2023-05-10T00:46:36;24.20;48.50
44723;DHT22;30451;48.638;10.624;2023-05-10T00:49:02;24.10;48.40
44723;DHT22;30451;48.638;10.624;2023-05-10T00:51:28;24.10;48.50
44723;DHT22;30451;48.638;10.624;2023-05-10T00:53:54;24.10;48.40
44723;DHT22;30451;48.638;10.624;2023-05-10T00:56:21;24.10;48.50
44723;DHT22;30451;48.638;10.624;2023-05-10T00:58:48;24.10;48.50
44723;DHT22;30451;48.638;10.624;2023-05-10T01:01:14;24.10;48.50
44723;DHT22;30451;48.638;10.624;2023-05-10T01:03:40;24.10;48.50
44723;DHT22;30451;48.638;10.624;2023-05-10T01:06:06;24.10;48.50
44723;DHT22;30451;48.638;10.624;2023-05-10T01:08:31;24.10;48.50
44723;DHT22;30451;48.638;10.624;2023-05-10T01:10:57;24.10;48.50
44723;DHT22;30451;48.638;10.624;2023-05-10T01:13:44;24.10;48.50
44723;DHT22;30451;48.638;10.624;2023-05-10T01:16:13;24.10;48.50
44723;DHT22;30451;48.638;10.624;2023-05-10T01:18:40;24.10;48.50
44723;DHT22;30451;48.638;10.624;2023-05-10T01:21:43;24.10;48.50
44723;DHT22;30451;48.638;10.624;2023-05-10T01:32:32;24.10;48.60
44723;DHT22;30451;48.638;10.624;2023-05-10T01:43:29;24.00;48.60
44723;DHT22;30451;48.638;10.624;2023-05-10T01:46:04;24.00;48.60
44723;DHT22;30451;48.638;10.624;2023-05-10T01:48:37;24.00;48.60
44723;DHT22;30451;48.638;10.624;2023-05-10T01:51:06;24.00;48.60
44723;DHT22;30451;48.638;10.624;2023-05-10T01:53:34;24.00;48.60
44723;DHT22;30451;48.638;10.624;2023-05-10T01:56:03;24.00;48.70
44723;DHT22;30451;48.638;10.624;2023-05-10T01:58:32;24.00;48.70
44723;DHT22;30451;48.638;10.624;2023-05-10T02:01:01;24.00;48.70
44723;DHT22;30451;48.638;10.624;2023-05-10T02:03:30;24.00;48.70
44723;DHT22;30451;48.638;10.624;2023-05-10T02:05:57;24.00;48.70
44723;DHT22;30451;48.638;10.624;2023-05-10T02:08:23;24.00;48.70
44723;DHT22;30451;48.638;10.624;2023-05-10T02:10:52;24.00;48.70
44723;DHT22;30451;48.638;10.624;2023-05-10T02:13:18;24.00;48.70
44723;DHT22;30451;48.638;10.624;2023-05-10T02:15:47;23.90;48.60
44723;DHT22;30451;48.638;10.624;2023-05-10T02:18:13;23.90;48.60
44723;DHT22;30451;48.638;10.624;2023-05-10T02:20:42;23.90;48.60
44723;DHT22;30451;48.638;10.624;2023-05-10T02:23:08;23.90;48.70
44723;DHT22;30451;48.638;10.624;2023-05-10T02:25:35;23.90;48.70
44723;DHT22;30451;48.638;10.624;2023-05-10T02:28:03;23.90;48.70
44723;DHT22;30451;48.638;10.624;2023-05-10T02:30:31;23.90;48.70
44723;DHT22;30451;48.638;10.624;2023-05-10T02:32:57;23.90;48.70
44723;DHT22;30451;48.638;10.624;2023-05-10T02:35:25;23.90;48.70
44723;DHT22;30451;48.638;10.624;2023-05-10T02:37:52;23.90;48.70
44723;DHT22;30451;48.638;10.624;2023-05-10T02:40:19;23.90;48.70
44723;DHT22;30451;48.638;10.624;2023-05-10T02:42:47;23.90;48.80
44723;DHT22;30451;48.638;10.624;2023-05-10T02:45:18;23.90;48.70
44723;DHT22;30451;48.638;10.624;2023-05-10T02:47:44;23.90;48.80
44723;DHT22;30451;48.638;10.624;2023-05-10T02:50:10;23.90;48.80
44723;DHT22;30451;48.638;10.624;2023-05-10T02:52:42;23.90;48.80
44723;DHT22;30451;48.638;10.624;2023-05-10T02:55:11;23.90;48.80
44723;DHT22;30451;48.638;10.624;2023-05-10T02:57:41;23.90;48.80
44723;DHT22;30451;48.638;10.624;2023-05-10T03:00:09;23.90;48.80
44723;DHT22;30451;48.638;10.624;2023-05-10T03:02:35;23.90;48.80
44723;DHT22;30451;48.638;10.624;2023-05-10T03:05:01;23.90;48.80
44723;DHT22;30451;48.638;10.624;2023-05-10T03:07:28;23.90;48.80
44723;DHT22;30451;48.638;10.624;2023-05-10T03:09:54;23.80;48.80
44723;DHT22;30451;48.638;10.624;2023-05-10T03:12:33;23.80;48.80
44723;DHT22;30451;48.638;10.624;2023-05-10T03:15:41;23.90;48.90
44723;DHT22;30451;48.638;10.624;2023-05-10T03:18:10;23.90;48.90
44723;DHT22;30451;48.638;10.624;2023-05-10T03:20:42;23.80;48.80
44723;DHT22;30451;48.638;10.624;2023-05-10T03:23:19;23.80;48.90
44723;DHT22;30451;48.638;10.624;2023-05-10T03:25:48;23.80;48.80
44723;DHT22;30451;48.638;10.624;2023-05-10T03:28:15;23.80;48.90
44723;DHT22;30451;48.638;10.624;2023-05-10T03:30:43;23.80;48.90
44723;DHT22;30451;48.638;10.624;2023-05-10T03:33:09;23.80;48.90
44723;DHT22;30451;48.638;10.624;2023-05-10T03:35:34;23.80;48.90
44723;DHT22;30451;48.638;10.624;2023-05-10T03:38:01;23.80;48.90
44723;DHT22;30451;48.638;10.624;2023-05-10T03:40:27;23.80;48.90
44723;DHT22;30451;48.638;10.624;2023-05-10T03:42:55;23.80;49.20
44723;DHT22;30451;48.638;10.624;2023-05-10T03:45:20;23.80;48.90
44723;DHT22;30451;48.638;10.624;2023-05-10T03:47:46;23.80;48.90
44723;DHT22;30451;48.638;10.624;2023-05-10T03:50:12;23.80;48.90
44723;DHT22;30451;48.638;10.624;2023-05-10T03:52:37;23.80;49.00
44723;DHT22;30451;48.638;10.624;2023-05-10T03:55:05;23.80;48.90
44723;DHT22;30451;48.638;10.624;2023-05-10T03:57:30;23.80;48.90
44723;DHT22;30451;48.638;10.624;2023-05-10T03:59:56;23.80;49.00
44723;DHT22;30451;48.638;10.624;2023-05-10T04:02:22;23.80;49.00
44723;DHT22;30451;48.638;10.624;2023-05-10T04:04:47;23.70;48.90
44723;DHT22;30451;48.638;10.624;2023-05-10T04:07:13;23.70;48.90
44723;DHT22;30451;48.638;10.624;2023-05-10T04:09:39;23.70;48.90
44723;DHT22;30451;48.638;10.624;2023-05-10T04:12:05;23.70;48.90
44723;DHT22;30451;48.638;10.624;2023-05-10T04:14:31;23.70;49.50
44723;DHT22;30451;48.638;10.624;2023-05-10T04:16:56;23.70;48.90
44723;DHT22;30451;48.638;10.624;2023-05-10T04:19:22;23.70;48.90
44723;DHT22;30451;48.638;10.624;2023-05-10T04:21:48;23.70;48.90
44723;DHT22;30451;48.638;10.624;2023-05-10T04:24:13;23.70;48.90
44723;DHT22;30451;48.638;10.624;2023-05-10T04:26:39;23.70;49.00
44723;DHT22;30451;48.638;10.624;2023-05-10T04:29:04;23.70;48.90
44723;DHT22;30451;48.638;10.624;2023-05-10T04:31:30;23.70;48.90
44723;DHT22;30451;48.638;10.624;2023-05-10T04:33:56;23.70;48.90
44723;DHT22;30451;48.638;10.624;2023-05-10T04:36:21;23.70;48.90
44723;DHT22;30451;48.638;10.624;2023-05-10T04:38:47;23.70;48.90
44723;DHT22;30451;48.638;10.624;2023-05-10T04:41:12;23.70;48.90
44723;DHT22;30451;48.638;10.624;2023-05-10T04:43:38;23.70;48.90
44723;DHT22;30451;48.638;10.624;2023-05-10T04:46:04;23.70;48.90
44723;DHT22;30451;48.638;10.624;2023-05-10T04:48:30;23.70;49.00
44723;DHT22;30451;48.638;10.624;2023-05-10T04:50:56;23.70;49.00
44723;DHT22;30451;48.638;10.624;2023-05-10T04:53:22;23.70;49.00
44723;DHT22;30451;48.638;10.624;2023-05-10T04:55:47;23.70;49.00
44723;DHT22;30451;48.638;10.624;2023-05-10T04:58:14;23.70;49.00
44723;DHT22;30451;48.638;10.624;2023-05-10T05:00:39;23.70;49.00
44723;DHT22;30451;48.638;10.624;2023-05-10T05:03:05;23.70;49.00
44723;DHT22;30451;48.638;10.624;2023-05-10T05:05:31;23.70;49.00
44723;DHT22;30451;48.638;10.624;2023-05-10T05:07:57;23.60;49.00
44723;DHT22;30451;48.638;10.624;2023-05-10T05:10:22;23.60;49.00
44723;DHT22;30451;48.638;10.624;2023-05-10T05:12:48;23.60;49.00
44723;DHT22;30451;48.638;10.624;2023-05-10T05:15:13;23.60;49.00
44723;DHT22;30451;48.638;10.624;2023-05-10T05:17:40;23.60;49.00
44723;DHT22;30451;48.638;10.624;2023-05-10T05:20:06;23.60;49.10
44723;DHT22;30451;48.638;10.624;2023-05-10T05:22:32;23.60;49.00
44723;DHT22;30451;48.638;10.624;2023-05-10T05:24:58;23.60;49.10
44723;DHT22;30451;48.638;10.624;2023-05-10T05:27:24;23.60;49.10
44723;DHT22;30451;48.638;10.624;2023-05-10T05:29:55;23.60;49.10
44723;DHT22;30451;48.638;10.624;2023-05-10T05:32:22;23.60;49.10
44723;DHT22;30451;48.638;10.624;2023-05-10T05:34:47;23.60;49.20
44723;DHT22;30451;48.638;10.624;2023-05-10T05:37:17;23.60;49.20
44723;DHT22;30451;48.638;10.624;2023-05-10T05:39:43;23.60;49.10
44723;DHT22;30451;48.638;10.624;2023-05-10T05:42:11;23.60;49.10
44723;DHT22;30451;48.638;10.624;2023-05-10T05:44:37;23.60;49.20
44723;DHT22;30451;48.638;10.624;2023-05-10T05:47:03;23.60;49.10
44723;DHT22;30451;48.638;10.624;2023-05-10T05:49:29;23.60;49.10
44723;DHT22;30451;48.638;10.624;2023-05-10T05:51:59;23.50;49.10
44723;DHT22;30451;48.638;10.624;2023-05-10T05:54:25;23.60;49.10
44723;DHT22;30451;48.638;10.624;2023-05-10T05:56:50;23.60;49.10
44723;DHT22;30451;48.638;10.624;2023-05-10T05:59:16;23.50;49.10
44723;DHT22;30451;48.638;10.624;2023-05-10T06:01:42;23.50;49.10
44723;DHT22;30451;48.638;10.624;2023-05-10T06:04:07;23.50;49.10
44723;DHT22;30451;48.638;10.624;2023-05-10T06:06:33;23.60;49.10
44723;DHT22;30451;48.638;10.624;2023-05-10T06:08:59;23.50;49.10
44723;DHT22;30451;48.638;10.624;2023-05-10T06:11:25;23.50;49.10
44723;DHT22;30451;48.638;10.624;2023-05-10T06:13:51;23.50;49.10
44723;DHT22;30451;48.638;10.624;2023-05-10T06:16:16;23.50;49.10
44723;DHT22;30451;48.638;10.624;2023-05-10T06:18:43;23.50;49.10
44723;DHT22;30451;48.638;10.624;2023-05-10T06:21:08;23.50;49.10
44723;DHT22;30451;48.638;10.624;2023-05-10T06:23:34;23.50;49.10
44723;DHT22;30451;48.638;10.624;2023-05-10T06:26:01;23.50;49.40
44723;DHT22;30451;48.638;10.624;2023-05-10T06:28:26;23.50;49.30
44723;DHT22;30451;48.638;10.624;2023-05-10T06:30:52;23.50;49.10
44723;DHT22;30451;48.638;10.624;2023-05-10T06:33:17;23.50;49.10
44723;DHT22;30451;48.638;10.624;2023-05-10T06:35:43;23.50;49.10
44723;DHT22;30451;48.638;10.624;2023-05-10T06:38:09;23.50;49.10
44723;DHT22;30451;48.638;10.624;2023-05-10T06:40:34;23.50;49.10
44723;DHT22;30451;48.638;10.624;2023-05-10T06:43:01;23.50;49.20
44723;DHT22;30451;48.638;10.624;2023-05-10T06:45:26;23.50;49.20
44723;DHT22;30451;48.638;10.624;2023-05-10T06:47:52;23.50;49.10
44723;DHT22;30451;48.638;10.624;2023-05-10T06:50:18;23.50;49.10
44723;DHT22;30451;48.638;10.624;2023-05-10T06:52:43;23.50;49.10
44723;DHT22;30451;48.638;10.624;2023-05-10T06:55:09;23.50;49.20
44723;DHT22;30451;48.638;10.624;2023-05-10T06:57:35;23.50;49.20
44723;DHT22;30451;48.638;10.624;2023-05-10T07:00:01;23.50;49.10
44723;DHT22;30451;48.638;10.624;2023-05-10T07:02:29;23.50;49.20
44723;DHT22;30451;48.638;10.624;2023-05-10T07:04:55;23.50;49.20
44723;DHT22;30451;48.638;10.624;2023-05-10T07:07:20;23.40;49.10
44723;DHT22;30451;48.638;10.624;2023-05-10T07:09:46;23.40;49.10
44723;DHT22;30451;48.638;10.624;2023-05-10T07:12:12;23.40;49.10
44723;DHT22;30451;48.638;10.624;2023-05-10T07:14:37;23.40;49.10
44723;DHT22;30451;48.638;10.624;2023-05-10T07:17:03;23.40;49.10
44723;DHT22;30451;48.638;10.624;2023-05-10T07:19:28;23.40;49.10
44723;DHT22;30451;48.638;10.624;2023-05-10T07:21:55;23.40;49.10
44723;DHT22;30451;48.638;10.624;2023-05-10T07:24:21;23.40;49.10
44723;DHT22;30451;48.638;10.624;2023-05-10T07:26:46;23.40;49.10
44723;DHT22;30451;48.638;10.624;2023-05-10T07:29:12;23.40;49.10
44723;DHT22;30451;48.638;10.624;2023-05-10T07:31:38;23.40;49.20
44723;DHT22;30451;48.638;10.624;2023-05-10T07:34:03;23.40;49.10
44723;DHT22;30451;48.638;10.624;2023-05-10T07:36:29;23.40;49.10
44723;DHT22;30451;48.638;10.624;2023-05-10T07:38:54;23.40;49.10
44723;DHT22;30451;48.638;10.624;2023-05-10T07:41:20;23.40;49.30
44723;DHT22;30451;48.638;10.624;2023-05-10T07:43:47;23.40;49.20
44723;DHT22;30451;48.638;10.624;2023-05-10T07:46:13;23.40;49.20
44723;DHT22;30451;48.638;10.624;2023-05-10T07:48:38;23.40;49.20
44723;DHT22;30451;48.638;10.624;2023-05-10T07:51:04;23.40;49.20
44723;DHT22;30451;48.638;10.624;2023-05-10T07:53:31;23.40;49.20
44723;DHT22;30451;48.638;10.624;2023-05-10T07:55:58;23.40;49.20
44723;DHT22;30451;48.638;10.624;2023-05-10T07:58:24;23.40;49.10
44723;DHT22;30451;48.638;10.624;2023-05-10T08:00:50;23.40;49.20
44723;DHT22;30451;48.638;10.624;2023-05-10T08:03:16;23.40;49.10
44723;DHT22;30451;48.638;10.624;2023-05-10T08:05:41;23.40;49.20
44723;DHT22;30451;48.638;10.624;2023-05-10T08:08:07;23.40;49.20
44723;DHT22;30451;48.638;10.624;2023-05-10T08:10:33;23.40;49.20
44723;DHT22;30451;48.638;10.624;2023-05-10T08:12:58;23.40;49.20
44723;DHT22;30451;48.638;10.624;2023-05-10T08:15:24;23.40;49.20
44723;DHT22;30451;48.638;10.624;2023-05-10T08:17:51;23.40;49.20
44723;DHT22;30451;48.638;10.624;2023-05-10T08:20:17;23.30;49.10
44723;DHT22;30451;48.638;10.624;2023-05-10T08:22:45;23.40;49.20
44723;DHT22;30451;48.638;10.624;2023-05-10T08:25:11;23.30;49.10
44723;DHT22;30451;48.638;10.624;2023-05-10T08:27:36;23.30;49.20
44723;DHT22;30451;48.638;10.624;2023-05-10T08:30:02;23.30;49.10
44723;DHT22;30451;48.638;10.624;2023-05-10T08:32:28;23.30;49.20
44723;DHT22;30451;48.638;10.624;2023-05-10T08:34:54;23.30;49.20
44723;DHT22;30451;48.638;10.624;2023-05-10T08:37:20;23.30;49.20
44723;DHT22;30451;48.638;10.624;2023-05-10T08:39:45;23.30;49.10
44723;DHT22;30451;48.638;10.624;2023-05-10T08:42:16;23.30;49.10
44723;DHT22;30451;48.638;10.624;2023-05-10T08:44:48;23.30;49.20
44723;DHT22;30451;48.638;10.624;2023-05-10T08:47:16;23.30;49.20
44723;DHT22;30451;48.638;10.624;2023-05-10T08:49:42;23.30;49.20
44723;DHT22;30451;48.638;10.624;2023-05-10T08:52:10;23.30;49.20
44723;DHT22;30451;48.638;10.624;2023-05-10T08:54:38;23.30;49.20
44723;DHT22;30451;48.638;10.624;2023-05-10T08:57:03;23.30;49.20
44723;DHT22;30451;48.638;10.624;2023-05-10T08:59:29;23.30;49.20
44723;DHT22;30451;48.638;10.624;2023-05-10T09:01:58;23.30;49.20
44723;DHT22;30451;48.638;10.624;2023-05-10T09:04:24;23.30;49.20
44723;DHT22;30451;48.638;10.624;2023-05-10T09:06:50;23.30;49.20
44723;DHT22;30451;48.638;10.624;2023-05-10T09:09:17;23.30;49.20
44723;DHT22;30451;48.638;10.624;2023-05-10T09:11:43;23.30;49.20
44723;DHT22;30451;48.638;10.624;2023-05-10T09:14:10;23.30;49.20
44723;DHT22;30451;48.638;10.624;2023-05-10T09:16:37;23.30;49.20
44723;DHT22;30451;48.638;10.624;2023-05-10T09:19:03;23.30;49.20
44723;DHT22;30451;48.638;10.624;2023-05-10T09:21:30;23.30;49.20
44723;DHT22;30451;48.638;10.624;2023-05-10T09:23:56;23.20;49.20
44723;DHT22;30451;48.638;10.624;2023-05-10T09:26:25;23.20;49.20
44723;DHT22;30451;48.638;10.624;2023-05-10T09:28:58;23.30;49.30
44723;DHT22;30451;48.638;10.624;2023-05-10T09:31:24;23.30;49.30
44723;DHT22;30451;48.638;10.624;2023-05-10T09:34:08;23.20;49.20
44723;DHT22;30451;48.638;10.624;2023-05-10T09:36:33;23.20;49.20
44723;DHT22;30451;48.638;10.624;2023-05-10T09:38:59;23.30;49.20
44723;DHT22;30451;48.638;10.624;2023-05-10T09:41:25;23.30;49.20
44723;DHT22;30451;48.638;10.624;2023-05-10T09:43:55;23.30;49.20
44723;DHT22;30451;48.638;10.624;2023-05-10T09:46:21;23.20;49.20
44723;DHT22;30451;48.638;10.624;2023-05-10T09:48:48;23.20;49.20
44723;DHT22;30451;48.638;10.624;2023-05-10T09:51:24;23.20;49.20
44723;DHT22;30451;48.638;10.624;2023-05-10T09:54:12;23.20;49.20
44723;DHT22;30451;48.638;10.624;2023-05-10T09:56:38;23.20;49.20
44723;DHT22;30451;48.638;10.624;2023-05-10T09:59:07;23.30;49.30
44723;DHT22;30451;48.638;10.624;2023-05-10T10:01:34;23.20;49.20
44723;DHT22;30451;48.638;10.624;2023-05-10T10:04:03;23.20;49.20
44723;DHT22;30451;48.638;10.624;2023-05-10T10:06:29;23.20;49.20
44723;DHT22;30451;48.638;10.624;2023-05-10T10:08:59;23.20;49.30
44723;DHT22;30451;48.638;10.624;2023-05-10T10:11:25;23.20;49.20
44723;DHT22;30451;48.638;10.624;2023-05-10T10:13:51;23.20;49.20
44723;DHT22;30451;48.638;10.624;2023-05-10T10:16:16;23.20;49.30
44723;DHT22;30451;48.638;10.624;2023-05-10T10:18:42;23.20;49.20
44723;DHT22;30451;48.638;10.624;2023-05-10T10:21:08;23.20;49.20
44723;DHT22;30451;48.638;10.624;2023-05-10T10:23:37;23.20;49.20
44723;DHT22;30451;48.638;10.624;2023-05-10T10:26:04;23.20;49.20
44723;DHT22;30451;48.638;10.624;2023-05-10T10:31:34;23.20;49.30
44723;DHT22;30451;48.638;10.624;2023-05-10T10:34:09;23.20;49.20
44723;DHT22;30451;48.638;10.624;2023-05-10T10:36:45;23.20;49.20
44723;DHT22;30451;48.638;10.624;2023-05-10T10:39:11;23.20;49.20
44723;DHT22;30451;48.638;10.624;2023-05-10T10:41:39;23.20;49.20
44723;DHT22;30451;48.638;10.624;2023-05-10T10:49:51;23.20;49.20
44723;DHT22;30451;48.638;10.624;2023-05-10T10:52:27;23.20;49.20
44723;DHT22;30451;48.638;10.624;2023-05-10T10:55:03;23.20;49.30
44723;DHT22;30451;48.638;10.624;2023-05-10T10:57:32;23.20;49.30
44723;DHT22;30451;48.638;10.624;2023-05-10T11:02:48;23.20;49.30
44723;DHT22;30451;48.638;10.624;2023-05-10T11:07:59;23.20;49.30
44723;DHT22;30451;48.638;10.624;2023-05-10T11:10:26;23.20;49.30
44723;DHT22;30451;48.638;10.624;2023-05-10T11:15:34;23.20;49.20
44723;DHT22;30451;48.638;10.624;2023-05-10T11:18:16;23.20;49.30
44723;DHT22;30451;48.638;10.624;2023-05-10T11:20:43;23.20;49.30
44723;DHT22;30451;48.638;10.624;2023-05-10T11:23:13;23.20;49.30
44723;DHT22;30451;48.638;10.624;2023-05-10T11:25:42;23.20;49.30
44723;DHT22;30451;48.638;10.624;2023-05-10T11:28:08;23.20;49.40
44723;DHT22;30451;48.638;10.624;2023-05-10T11:30:35;23.20;49.30
44723;DHT22;30451;48.638;10.624;2023-05-10T11:33:01;23.20;49.30
44723;DHT22;30451;48.638;10.624;2023-05-10T11:35:27;23.20;49.30
44723;DHT22;30451;48.638;10.624;2023-05-10T11:37:53;23.20;49.30
44723;DHT22;30451;48.638;10.624;2023-05-10T11:40:20;23.20;49.40
44723;DHT22;30451;48.638;10.624;2023-05-10T11:42:46;23.20;49.40
44723;DHT22;30451;48.638;10.624;2023-05-10T11:45:12;23.20;49.40
44723;DHT22;30451;48.638;10.624;2023-05-10T11:47:38;23.20;49.40
44723;DHT22;30451;48.638;10.624;2023-05-10T11:50:05;23.20;49.40
44723;DHT22;30451;48.638;10.624;2023-05-10T11:52:35;23.20;49.40
44723;DHT22;30451;48.638;10.624;2023-05-10T11:55:02;23.20;49.40
44723;DHT22;30451;48.638;10.624;2023-05-10T11:57:28;23.20;49.40
44723;DHT22;30451;48.638;10.624;2023-05-10T11:59:54;23.20;49.40
44723;DHT22;30451;48.638;10.624;2023-05-10T12:02:20;23.20;49.40
44723;DHT22;30451;48.638;10.624;2023-05-10T12:04:46;23.20;49.40
44723;DHT22;30451;48.638;10.624;2023-05-10T12:07:12;23.20;49.40
44723;DHT22;30451;48.638;10.624;2023-05-10T12:10:01;23.20;49.40
44723;DHT22;30451;48.638;10.624;2023-05-10T12:12:30;23.20;49.40
44723;DHT22;30451;48.638;10.624;2023-05-10T12:15:00;23.20;49.40
44723;DHT22;30451;48.638;10.624;2023-05-10T12:17:29;23.20;49.40
44723;DHT22;30451;48.638;10.624;2023-05-10T12:19:59;23.20;49.40
44723;DHT22;30451;48.638;10.624;2023-05-10T12:22:37;23.20;49.50
44723;DHT22;30451;48.638;10.624;2023-05-10T12:25:03;23.20;49.50
44723;DHT22;30451;48.638;10.624;2023-05-10T12:27:32;23.20;49.50
44723;DHT22;30451;48.638;10.624;2023-05-10T12:29:59;23.20;49.60
44723;DHT22;30451;48.638;10.624;2023-05-10T12:32:40;23.20;49.60
44723;DHT22;30451;48.638;10.624;2023-05-10T12:35:07;23.20;49.60
44723;DHT22;30451;48.638;10.624;2023-05-10T12:37:33;23.20;49.60
44723;DHT22;30451;48.638;10.624;2023-05-10T12:40:07;23.20;49.70
44723;DHT22;30451;48.638;10.624;2023-05-10T12:42:34;23.20;49.70
44723;DHT22;30451;48.638;10.624;2023-05-10T12:45:01;23.10;49.60
44723;DHT22;30451;48.638;10.624;2023-05-10T12:47:27;23.20;49.70
44723;DHT22;30451;48.638;10.624;2023-05-10T12:49:52;23.20;49.70
44723;DHT22;30451;48.638;10.624;2023-05-10T12:52:18;23.20;49.80
44723;DHT22;30451;48.638;10.624;2023-05-10T12:54:44;23.20;49.70
44723;DHT22;30451;48.638;10.624;2023-05-10T12:57:09;23.20;49.70
44723;DHT22;30451;48.638;10.624;2023-05-10T12:59:35;23.20;49.70
44723;DHT22;30451;48.638;10.624;2023-05-10T13:02:01;23.20;49.70
44723;DHT22;30451;48.638;10.624;2023-05-10T13:04:26;23.20;49.70
44723;DHT22;30451;48.638;10.624;2023-05-10T13:06:52;23.20;49.70
44723;DHT22;30451;48.638;10.624;2023-05-10T13:09:17;23.20;49.70
44723;DHT22;30451;48.638;10.624;2023-05-10T13:11:44;23.20;49.70
44723;DHT22;30451;48.638;10.624;2023-05-10T13:14:10;23.20;49.80
44723;DHT22;30451;48.638;10.624;2023-05-10T13:16:36;23.20;49.80
44723;DHT22;30451;48.638;10.624;2023-05-10T13:19:01;23.20;49.80
44723;DHT22;30451;48.638;10.624;2023-05-10T13:21:28;23.20;49.80
44723;DHT22;30451;48.638;10.624;2023-05-10T13:23:53;23.20;49.80
44723;DHT22;30451;48.638;10.624;2023-05-10T13:26:19;23.20;49.80
44723;DHT22;30451;48.638;10.624;2023-05-10T13:28:45;23.20;49.80
44723;DHT22;30451;48.638;10.624;2023-05-10T13:31:11;23.20;49.80
44723;DHT22;30451;48.638;10.624;2023-05-10T13:33:37;23.20;49.80
44723;DHT22;30451;48.638;10.624;2023-05-10T13:36:02;23.20;49.90
44723;DHT22;30451;48.638;10.624;2023-05-10T13:38:28;23.20;49.80
44723;DHT22;30451;48.638;10.624;2023-05-10T13:40:53;23.20;49.80
44723;DHT22;30451;48.638;10.624;2023-05-10T13:43:19;23.20;49.90
44723;DHT22;30451;48.638;10.624;2023-05-10T13:45:45;23.20;49.90
44723;DHT22;30451;48.638;10.624;2023-05-10T13:48:11;23.20;49.80
44723;DHT22;30451;48.638;10.624;2023-05-10T13:50:36;23.20;49.80
44723;DHT22;30451;48.638;10.624;2023-05-10T13:53:02;23.20;49.80
44723;DHT22;30451;48.638;10.624;2023-05-10T13:55:27;23.20;49.80
44723;DHT22;30451;48.638;10.624;2023-05-10T13:57:54;23.20;49.80
44723;DHT22;30451;48.638;10.624;2023-05-10T14:00:19;23.20;49.90
44723;DHT22;30451;48.638;10.624;2023-05-10T14:02:45;23.20;49.80
44723;DHT22;30451;48.638;10.624;2023-05-10T14:05:10;23.20;49.90
44723;DHT22;30451;48.638;10.624;2023-05-10T14:07:36;23.20;49.90
44723;DHT22;30451;48.638;10.624;2023-05-10T14:10:02;23.20;49.90
44723;DHT22;30451;48.638;10.624;2023-05-10T14:12:28;23.20;49.90
44723;DHT22;30451;48.638;10.624;2023-05-10T14:14:53;23.20;49.90
44723;DHT22;30451;48.638;10.624;2023-05-10T14:17:19;23.20;49.90
44723;DHT22;30451;48.638;10.624;2023-05-10T14:19:44;23.20;50.00
44723;DHT22;30451;48.638;10.624;2023-05-10T14:22:10;23.20;50.00
44723;DHT22;30451;48.638;10.624;2023-05-10T14:24:36;23.30;50.10
44723;DHT22;30451;48.638;10.624;2023-05-10T14:27:01;23.20;50.10
44723;DHT22;30451;48.638;10.624;2023-05-10T14:29:27;23.20;50.10
44723;DHT22;30451;48.638;10.624;2023-05-10T14:31:52;23.30;50.20
44723;DHT22;30451;48.638;10.624;2023-05-10T14:34:18;23.20;50.20
44723;DHT22;30451;48.638;10.624;2023-05-10T14:36:44;23.20;50.20
44723;DHT22;30451;48.638;10.624;2023-05-10T14:39:09;23.20;50.20
44723;DHT22;30451;48.638;10.624;2023-05-10T14:41:38;23.20;50.30
44723;DHT22;30451;48.638;10.624;2023-05-10T14:44:04;23.20;50.30
44723;DHT22;30451;48.638;10.624;2023-05-10T14:46:30;23.20;50.30
44723;DHT22;30451;48.638;10.624;2023-05-10T14:48:56;23.20;50.30
44723;DHT22;30451;48.638;10.624;2023-05-10T14:51:21;23.20;50.30
44723;DHT22;30451;48.638;10.624;2023-05-10T14:53:48;23.30;50.50
44723;DHT22;30451;48.638;10.624;2023-05-10T14:56:15;23.20;50.40
44723;DHT22;30451;48.638;10.624;2023-05-10T14:58:40;23.20;50.40
44723;DHT22;30451;48.638;10.624;2023-05-10T15:01:06;23.20;50.40
44723;DHT22;30451;48.638;10.624;2023-05-10T15:03:32;23.20;50.30
44723;DHT22;30451;48.638;10.624;2023-05-10T15:05:57;23.20;50.30
44723;DHT22;30451;48.638;10.624;2023-05-10T15:08:23;23.20;50.30
44723;DHT22;30451;48.638;10.624;2023-05-10T15:10:50;23.20;50.30
44723;DHT22;30451;48.638;10.624;2023-05-10T15:13:16;23.20;50.30
44723;DHT22;30451;48.638;10.624;2023-05-10T15:15:42;23.20;50.30
44723;DHT22;30451;48.638;10.624;2023-05-10T15:18:09;23.20;50.30
44723;DHT22;30451;48.638;10.624;2023-05-10T15:20:35;23.20;50.30
44723;DHT22;30451;48.638;10.624;2023-05-10T15:23:01;23.20;50.30
44723;DHT22;30451;48.638;10.624;2023-05-10T15:25:26;23.20;50.30
44723;DHT22;30451;48.638;10.624;2023-05-10T15:27:53;23.20;50.30
44723;DHT22;30451;48.638;10.624;2023-05-10T15:30:18;23.20;50.30
44723;DHT22;30451;48.638;10.624;2023-05-10T15:32:44;23.20;50.30
44723;DHT22;30451;48.638;10.624;2023-05-10T15:35:10;23.20;50.30
44723;DHT22;30451;48.638;10.624;2023-05-10T15:37:36;23.20;50.30
44723;DHT22;30451;48.638;10.624;2023-05-10T15:40:02;23.20;50.30
44723;DHT22;30451;48.638;10.624;2023-05-10T15:42:31;23.20;50.30
44723;DHT22;30451;48.638;10.624;2023-05-10T15:44:57;23.20;50.30
44723;DHT22;30451;48.638;10.624;2023-05-10T15:47:26;23.20;50.30